Time;durP1;ratioP1;P1;durP2;ratioP2;P2;SDS_P1;SDS_P2;PMS_P1;PMS_P2;Temp;Humidity;BMP_temperature;BMP_pressure;BME280_temperature;BME280_humidity;BME280_pressure;Samples;Min_cycle;Max_cycle;Signal;HPM_P1;HPM_P2
2024/03/14 00:00:46;;;;;;;7.50;2.10;;;10.80;99.90;;;;;;5024416;28;20041;-94
2024/03/14 00:03:12;;;;;;;11.10;1.23;;;10.80;99.90;;;;;;5030471;28;20026;-94
2024/03/14 00:05:37;;;;;;;4.95;1.90;;;10.80;99.90;;;;;;5012617;28;20737;-95
2024/03/14 00:08:04;;;;;;;4.55;1.67;;;10.80;99.90;;;;;;5012981;28;20045;-96
2024/03/14 00:10:30;;;;;;;11.05;2.00;;;10.80;99.90;;;;;;5013769;28;20038;-95
2024/03/14 00:12:56;;;;;;;5.75;1.70;;;10.70;99.90;;;;;;5011751;28;20122;-94
2024/03/14 00:15:22;;;;;;;7.95;1.85;;;10.70;99.90;;;;;;5032528;28;20030;-93
2024/03/14 00:17:48;;;;;;;5.43;1.98;;;10.70;99.90;;;;;;5035115;28;20022;-94
2024/03/14 00:20:14;;;;;;;3.83;1.83;;;10.70;99.90;;;;;;5036765;28;20018;-92
2024/03/14 00:22:40;;;;;;;11.10;2.97;;;10.70;99.90;;;;;;5038517;28;20068;-93
2024/03/14 00:25:09;;;;;;;6.72;1.85;;;10.70;99.90;;;;;;5037959;28;20025;-94
2024/03/14 00:27:39;;;;;;;4.00;2.05;;;10.70;99.90;;;;;;5017863;28;20014;-95
2024/03/14 00:30:09;;;;;;;10.90;2.30;;;10.70;99.90;;;;;;5032016;28;20030;-96
2024/03/14 00:32:35;;;;;;;10.67;2.23;;;10.70;99.90;;;;;;5033874;28;20033;-94
2024/03/14 00:35:03;;;;;;;4.30;1.80;;;10.70;99.90;;;;;;5033826;28;20275;-93
2024/03/14 00:37:30;;;;;;;4.55;2.10;;;10.70;99.90;;;;;;5010491;28;20026;-93
2024/03/14 00:39:56;;;;;;;11.10;2.40;;;10.70;99.90;;;;;;5027443;28;20033;-96
2024/03/14 00:42:24;;;;;;;9.32;2.40;;;10.70;99.90;;;;;;5013559;28;20022;-95
2024/03/14 00:44:50;;;;;;;7.22;2.20;;;10.70;99.90;;;;;;5027030;28;20022;-94
2024/03/14 00:47:15;;;;;;;4.63;1.83;;;10.70;99.90;;;;;;5027409;28;20034;-95
2024/03/14 00:49:42;;;;;;;6.15;2.00;;;10.70;99.90;;;;;;5029785;28;20025;-96
2024/03/14 00:52:08;;;;;;;9.95;2.60;;;10.60;99.90;;;;;;5009801;28;20033;-95
2024/03/14 00:54:33;;;;;;;4.68;2.03;;;10.60;99.90;;;;;;5033781;28;20018;-94
2024/03/14 00:57:02;;;;;;;4.97;2.22;;;10.60;99.90;;;;;;5035846;28;20034;-92
2024/03/14 00:59:31;;;;;;;7.47;1.88;;;10.60;99.90;;;;;;5032505;28;20074;-96
2024/03/14 01:01:56;;;;;;;6.25;2.10;;;10.60;99.90;;;;;;5005491;28;20030;-94
2024/03/14 01:04:22;;;;;;;7.18;2.25;;;10.60;99.90;;;;;;5020235;28;20071;-94
2024/03/14 01:06:48;;;;;;;10.07;2.05;;;10.60;99.90;;;;;;5010012;28;20034;-95
2024/03/14 01:09:16;;;;;;;4.75;2.38;;;10.50;99.90;;;;;;5026460;28;20022;-93
2024/03/14 01:11:42;;;;;;;9.10;2.58;;;10.60;99.90;;;;;;5023895;28;20037;-96
2024/03/14 01:14:07;;;;;;;10.13;1.92;;;10.50;99.90;;;;;;5028102;28;20096;-95
2024/03/14 01:16:34;;;;;;;6.78;2.35;;;10.60;99.90;;;;;;5027030;28;20033;-95
2024/03/14 01:19:00;;;;;;;10.40;2.15;;;10.60;99.90;;;;;;5025536;28;20037;-96
2024/03/14 01:21:26;;;;;;;9.45;1.98;;;10.50;99.90;;;;;;5023904;28;20108;-95
2024/03/14 01:23:52;;;;;;;8.02;1.85;;;10.50;99.90;;;;;;5022862;28;20042;-95
2024/03/14 01:26:21;;;;;;;11.85;1.98;;;10.50;99.90;;;;;;5024179;28;20034;-95
2024/03/14 01:28:46;;;;;;;14.30;3.17;;;10.50;99.90;;;;;;5026399;28;20088;-95
2024/03/14 01:31:13;;;;;;;7.53;2.10;;;10.50;99.90;;;;;;5007195;28;20042;-96
2024/03/14 01:33:40;;;;;;;9.05;2.80;;;10.50;99.90;;;;;;5023020;28;20028;-96
2024/03/14 01:36:05;;;;;;;12.25;4.22;;;10.50;99.90;;;;;;5005211;28;20026;-95
2024/03/14 01:38:31;;;;;;;4.68;2.35;;;10.50;99.90;;;;;;5021506;28;20026;-95
2024/03/14 01:40:57;;;;;;;5.13;1.95;;;10.50;99.90;;;;;;5004972;28;20026;-94
2024/03/14 01:43:22;;;;;;;17.13;3.78;;;10.50;99.90;;;;;;5006482;28;20054;-94
2024/03/14 01:45:48;;;;;;;10.20;3.08;;;10.50;99.90;;;;;;5006564;28;20106;-95
2024/03/14 01:48:14;;;;;;;10.63;3.60;;;10.50;99.90;;;;;;5006681;28;20099;-95
2024/03/14 01:50:40;;;;;;;11.35;3.20;;;10.50;99.90;;;;;;5024397;28;20030;-94
2024/03/14 01:53:06;;;;;;;10.73;3.40;;;10.50;99.90;;;;;;5005640;28;20018;-96
2024/03/14 01:55:32;;;;;;;7.55;2.72;;;10.50;99.90;;;;;;5006529;28;20169;-95
2024/03/14 01:57:58;;;;;;;9.25;3.25;;;10.50;99.90;;;;;;5020480;28;20084;-94
2024/03/14 02:00:33;;;;;;;9.13;3.08;;;10.50;99.90;;;;;;5019670;28;20030;-94
2024/03/14 02:03:00;;;;;;;12.95;3.35;;;10.50;99.90;;;;;;5008181;28;20113;-95
2024/03/14 02:05:26;;;;;;;8.10;3.13;;;10.50;99.90;;;;;;5030167;28;20221;-94
2024/03/14 02:07:52;;;;;;;12.63;3.08;;;10.50;99.90;;;;;;5029423;28;20029;-93
2024/03/14 02:10:23;;;;;;;11.10;3.28;;;10.50;99.90;;;;;;5028118;28;20033;-93
2024/03/14 02:12:49;;;;;;;10.88;3.58;;;10.50;99.90;;;;;;5015305;28;20089;-93
2024/03/14 02:15:15;;;;;;;6.85;3.33;;;10.50;99.90;;;;;;5030412;28;20053;-94
2024/03/14 02:17:41;;;;;;;11.23;3.80;;;10.40;99.90;;;;;;5023902;28;20037;-95
2024/03/14 02:20:14;;;;;;;12.57;4.03;;;10.40;99.90;;;;;;5022156;28;20029;-94
2024/03/14 02:22:44;;;;;;;12.80;3.85;;;10.40;99.90;;;;;;5002960;28;20029;-94
2024/03/14 02:25:10;;;;;;;11.23;4.00;;;10.40;99.90;;;;;;5005348;28;20231;-95
2024/03/14 02:27:36;;;;;;;12.85;3.30;;;10.40;99.90;;;;;;5005721;28;20026;-95
2024/03/14 02:30:04;;;;;;;10.30;4.53;;;10.40;99.90;;;;;;5002846;28;20033;-95
2024/03/14 02:32:30;;;;;;;10.43;3.50;;;10.40;99.90;;;;;;5004925;28;20052;-95
2024/03/14 02:34:56;;;;;;;12.82;3.53;;;10.40;99.90;;;;;;5004626;28;20479;-93
2024/03/14 02:37:21;;;;;;;16.30;3.50;;;10.40;99.90;;;;;;5005750;28;20017;-94
2024/03/14 02:39:48;;;;;;;12.38;3.83;;;10.40;99.90;;;;;;5030542;28;20022;-92
2024/03/14 02:42:14;;;;;;;11.43;3.78;;;10.40;99.90;;;;;;5031950;28;20026;-94
2024/03/14 02:44:39;;;;;;;10.43;3.15;;;10.40;99.90;;;;;;5032813;28;20026;-92
2024/03/14 02:47:08;;;;;;;14.02;3.70;;;10.30;99.90;;;;;;5028869;28;20054;-94
2024/03/14 02:49:35;;;;;;;13.10;3.90;;;10.30;99.90;;;;;;4993224;28;20056;-94
2024/03/14 02:52:01;;;;;;;18.30;4.25;;;10.30;99.90;;;;;;5024612;28;20022;-95
2024/03/14 02:54:30;;;;;;;11.60;4.13;;;10.30;99.90;;;;;;5008490;28;20036;-96
2024/03/14 02:56:56;;;;;;;11.27;3.35;;;10.30;99.90;;;;;;5023456;28;20052;-96
2024/03/14 02:59:22;;;;;;;13.48;3.75;;;10.30;99.90;;;;;;5001343;28;20105;-96
2024/03/14 03:01:53;;;;;;;11.38;3.70;;;10.30;99.90;;;;;;5002935;28;20068;-96
2024/03/14 03:04:19;;;;;;;;;;;10.30;99.90;;;;;;5019319;28;20041;-94
2024/03/14 03:06:48;;;;;;;7.82;3.25;;;10.30;99.90;;;;;;4999780;28;19910;-94
2024/03/14 03:09:17;;;;;;;8.63;3.25;;;10.30;99.90;;;;;;5017938;28;20115;-96
2024/03/14 03:11:43;;;;;;;11.35;3.38;;;10.30;99.90;;;;;;5022032;28;20025;-95
2024/03/14 03:14:08;;;;;;;8.00;4.03;;;10.20;99.90;;;;;;5004030;28;20032;-94
2024/03/14 03:16:34;;;;;;;10.50;3.72;;;10.20;99.90;;;;;;5000450;28;20029;-96
2024/03/14 03:19:00;;;;;;;10.38;5.13;;;10.20;99.90;;;;;;5018401;28;20034;-95
2024/03/14 03:21:27;;;;;;;12.07;4.22;;;10.20;99.90;;;;;;5019640;28;20121;-95
2024/03/14 03:23:53;;;;;;;7.43;3.70;;;10.20;99.90;;;;;;5000530;28;20550;-95
2024/03/14 03:26:19;;;;;;;11.70;3.78;;;10.20;99.90;;;;;;5018266;28;20026;-94
2024/03/14 03:28:45;;;;;;;10.13;3.90;;;10.20;99.90;;;;;;5001473;28;20487;-93
2024/03/14 03:31:11;;;;;;;14.40;3.75;;;10.10;99.90;;;;;;5004303;28;20101;-96
2024/03/14 03:33:38;;;;;;;10.43;4.00;;;10.10;99.90;;;;;;5005880;28;20049;-94
2024/03/14 03:36:04;;;;;;;14.25;4.03;;;10.10;99.90;;;;;;5006155;28;20030;-94
2024/03/14 03:38:32;;;;;;;9.43;3.85;;;10.10;99.90;;;;;;5004950;28;20396;-95
2024/03/14 03:40:59;;;;;;;13.07;4.00;;;10.10;99.90;;;;;;5000545;28;20036;-95
2024/03/14 03:43:26;;;;;;;11.38;3.72;;;10.00;99.90;;;;;;5016961;28;20097;-95
2024/03/14 03:45:57;;;;;;;13.90;4.22;;;10.00;99.90;;;;;;4999786;28;20056;-95
2024/03/14 03:48:23;;;;;;;13.85;3.92;;;10.00;99.90;;;;;;5016878;28;20026;-96
2024/03/14 03:50:49;;;;;;;14.38;3.80;;;10.00;99.90;;;;;;5017060;28;20034;-95
2024/03/14 03:53:15;;;;;;;21.13;4.57;;;10.00;99.90;;;;;;5018198;28;20053;-95
2024/03/14 03:55:42;;;;;;;13.40;5.07;;;10.00;99.90;;;;;;5021855;28;20105;-94
2024/03/14 03:58:09;;;;;;;12.20;3.97;;;10.00;99.90;;;;;;5022638;28;20024;-96
2024/03/14 04:00:46;;;;;;;12.70;4.20;;;10.00;99.90;;;;;;5004988;28;20026;-95
2024/03/14 04:03:15;;;;;;;9.68;4.03;;;9.90;99.90;;;;;;5004906;28;20360;-95
2024/03/14 04:05:42;;;;;;;13.65;4.45;;;10.00;99.90;;;;;;5022871;28;20030;-95
2024/03/14 04:08:08;;;;;;;10.60;4.50;;;10.00;99.90;;;;;;5021454;28;20100;-94
2024/03/14 04:10:34;;;;;;;9.43;3.83;;;10.00;99.90;;;;;;5020957;28;20069;-96
2024/03/14 04:13:01;;;;;;;11.60;3.90;;;9.90;99.90;;;;;;5004116;28;20026;-95
2024/03/14 04:15:30;;;;;;;10.05;3.60;;;9.90;99.90;;;;;;5021279;28;20060;-96
2024/03/14 04:17:56;;;;;;;12.30;3.63;;;9.90;99.90;;;;;;5004486;28;20025;-95
2024/03/14 04:20:27;;;;;;;9.82;3.95;;;9.90;99.90;;;;;;5020968;28;20117;-95
2024/03/14 04:22:54;;;;;;;18.75;4.65;;;9.90;99.90;;;;;;5004019;28;20026;-95
2024/03/14 04:25:20;;;;;;;13.43;4.72;;;9.90;99.90;;;;;;5021415;28;20038;-95
2024/03/14 04:27:53;;;;;;;13.73;4.55;;;9.90;99.90;;;;;;5003448;28;20022;-95
2024/03/14 04:30:23;;;;;;;17.55;4.88;;;9.90;99.90;;;;;;5020566;28;20030;-95
2024/03/14 04:32:51;;;;;;;12.82;4.18;;;9.90;99.90;;;;;;5003318;28;20558;-96
2024/03/14 04:35:20;;;;;;;18.30;6.18;;;9.90;99.90;;;;;;5021497;28;20038;-94
2024/03/14 04:37:49;;;;;;;12.35;4.55;;;9.90;99.90;;;;;;5020841;28;20029;-95
2024/03/14 04:40:17;;;;;;;11.88;4.10;;;9.90;99.90;;;;;;5020813;28;20034;-95
2024/03/14 04:42:43;;;;;;;16.17;4.25;;;9.90;99.90;;;;;;5020781;28;20025;-95
2024/03/14 04:45:17;;;;;;;16.42;4.88;;;9.90;99.90;;;;;;5003564;28;20045;-96
2024/03/14 04:47:44;;;;;;;14.73;4.55;;;9.90;99.90;;;;;;5020615;28;20026;-94
2024/03/14 04:50:10;;;;;;;11.18;3.85;;;9.90;99.90;;;;;;5020836;28;20491;-94
2024/03/14 04:52:36;;;;;;;14.93;6.40;;;9.90;99.90;;;;;;5003415;28;20021;-94
2024/03/14 04:55:05;;;;;;;14.02;3.90;;;9.90;99.90;;;;;;5003072;28;20369;-94
2024/03/14 04:57:33;;;;;;;12.60;4.38;;;9.90;99.90;;;;;;5003207;28;20113;-94
2024/03/14 04:59:59;;;;;;;10.32;4.65;;;9.90;99.90;;;;;;5021419;28;20021;-94
2024/03/14 05:02:25;;;;;;;13.80;3.92;;;9.90;99.90;;;;;;5004366;28;20377;-95
2024/03/14 05:04:51;;;;;;;12.95;4.45;;;9.90;99.90;;;;;;5004603;28;20022;-96
2024/03/14 05:07:18;;;;;;;18.20;4.75;;;9.90;99.90;;;;;;5008520;28;20038;-92
2024/03/14 05:09:44;;;;;;;14.48;4.55;;;9.90;99.90;;;;;;5031805;28;20191;-93
2024/03/14 05:12:10;;;;;;;11.85;3.03;;;9.90;99.90;;;;;;5030980;28;20479;-94
2024/03/14 05:14:36;;;;;;;16.02;4.18;;;9.90;99.90;;;;;;5033075;28;20037;-93
2024/03/14 05:17:03;;;;;;;14.02;3.72;;;9.90;99.90;;;;;;5015958;28;20093;-92
2024/03/14 05:19:28;;;;;;;9.88;3.60;;;9.90;99.90;;;;;;5015460;28;20025;-94
2024/03/14 05:21:54;;;;;;;16.38;4.00;;;9.90;99.90;;;;;;5020423;28;20029;-95
2024/03/14 05:24:19;;;;;;;14.82;3.72;;;9.90;99.90;;;;;;5019297;28;20038;-95
2024/03/14 05:26:45;;;;;;;15.02;4.65;;;9.90;99.90;;;;;;5018592;28;20030;-94
2024/03/14 05:29:11;;;;;;;17.33;3.70;;;9.90;99.90;;;;;;5020739;28;20542;-95
2024/03/14 05:31:36;;;;;;;14.02;3.85;;;9.90;99.90;;;;;;5019479;28;20060;-94
2024/03/14 05:34:02;;;;;;;12.00;3.70;;;9.90;99.90;;;;;;5019968;28;20064;-94
2024/03/14 05:36:28;;;;;;;10.93;5.13;;;9.90;99.90;;;;;;5003133;28;20471;-94
2024/03/14 05:38:53;;;;;;;16.88;4.22;;;9.90;99.90;;;;;;5000264;28;20026;-94
2024/03/14 05:41:19;;;;;;;15.82;4.72;;;9.90;99.90;;;;;;5000328;28;20037;-94
2024/03/14 05:43:45;;;;;;;24.00;4.45;;;9.90;99.90;;;;;;5017197;28;20061;-94
2024/03/14 05:46:11;;;;;;;15.73;4.25;;;10.00;99.90;;;;;;5018405;28;20499;-94
2024/03/14 05:48:37;;;;;;;23.48;4.18;;;10.00;99.90;;;;;;4999314;28;20426;-94
2024/03/14 05:51:02;;;;;;;14.50;3.63;;;10.00;99.90;;;;;;5016410;28;20117;-95
2024/03/14 05:53:31;;;;;;;11.38;3.38;;;10.00;99.90;;;;;;5004802;28;20117;-94
2024/03/14 05:55:58;;;;;;;14.55;3.50;;;10.00;99.90;;;;;;5003060;28;20022;-96
2024/03/14 05:58:25;;;;;;;9.60;3.40;;;10.00;99.90;;;;;;5003680;28;20030;-94
2024/03/14 06:00:51;;;;;;;17.23;4.65;;;10.00;99.90;;;;;;5003111;28;20041;-93
2024/03/14 06:03:17;;;;;;;16.30;3.63;;;10.00;99.90;;;;;;5021550;28;20432;-93
2024/03/14 06:05:43;;;;;;;14.68;3.10;;;10.00;99.90;;;;;;5002169;28;20029;-94
2024/03/14 06:08:08;;;;;;;9.20;2.90;;;10.00;99.90;;;;;;5001609;28;20113;-96
2024/03/14 06:10:34;;;;;;;13.40;2.92;;;10.00;99.90;;;;;;5002322;28;20572;-95
2024/03/14 06:13:00;;;;;;;12.57;3.08;;;10.00;99.90;;;;;;5003249;28;20065;-96
2024/03/14 06:15:26;;;;;;;10.68;3.10;;;10.00;99.90;;;;;;5002239;28;20049;-94
2024/03/14 06:17:52;;;;;;;11.63;3.08;;;10.00;99.90;;;;;;5018193;28;20057;-94
2024/03/14 06:20:18;;;;;;;9.45;2.50;;;10.00;99.90;;;;;;5019492;28;20026;-94
2024/03/14 06:22:44;;;;;;;12.45;3.03;;;10.00;99.90;;;;;;5022887;28;20014;-93
2024/03/14 06:25:15;;;;;;;10.00;2.70;;;10.00;99.90;;;;;;5025299;28;20018;-93
2024/03/14 06:27:41;;;;;;;17.40;2.88;;;10.00;99.90;;;;;;5025163;28;20085;-96
2024/03/14 06:30:11;;;;;;;7.13;2.50;;;10.00;99.90;;;;;;5028126;28;20030;-94
2024/03/14 06:32:37;;;;;;;11.45;2.22;;;10.00;99.90;;;;;;5007877;28;20025;-96
2024/03/14 06:35:04;;;;;;;10.73;2.90;;;10.00;99.90;;;;;;5006825;28;20026;-95
2024/03/14 06:37:30;;;;;;;13.20;2.95;;;10.00;99.90;;;;;;5007909;28;20048;-94
2024/03/14 06:39:55;;;;;;;14.48;3.00;;;10.00;99.90;;;;;;5024607;28;20018;-96
2024/03/14 06:42:21;;;;;;;18.17;3.25;;;10.00;99.90;;;;;;5030051;28;20075;-95
2024/03/14 06:44:47;;;;;;;12.77;3.10;;;10.00;99.90;;;;;;5029469;28;20100;-93
2024/03/14 06:47:13;;;;;;;10.18;3.40;;;10.00;99.90;;;;;;5029824;28;20038;-92
2024/03/14 06:49:42;;;;;;;10.02;3.20;;;10.00;99.90;;;;;;5012575;28;20045;-88
2024/03/14 06:52:09;;;;;;;9.25;2.95;;;10.00;99.90;;;;;;5038026;28;20010;-90
2024/03/14 06:54:38;;;;;;;8.23;2.90;;;10.00;99.90;;;;;;5021065;28;20018;-90
2024/03/14 06:57:09;;;;;;;8.05;3.35;;;10.00;99.90;;;;;;5015537;28;20033;-95
2024/03/14 06:59:38;;;;;;;14.25;2.92;;;10.00;99.90;;;;;;5032345;28;20017;-92
2024/03/14 07:02:05;;;;;;;10.50;3.20;;;10.10;99.90;;;;;;5025084;28;20025;-93
2024/03/14 07:04:34;;;;;;;9.48;2.83;;;10.00;99.90;;;;;;5025182;28;20026;-95
2024/03/14 07:07:01;;;;;;;13.60;3.67;;;10.00;99.90;;;;;;5034891;28;20021;-94
2024/03/14 07:09:28;;;;;;;10.70;3.25;;;10.10;99.90;;;;;;5034542;28;20253;-92
2024/03/14 07:11:54;;;;;;;7.68;2.60;;;10.00;99.90;;;;;;5034655;28;20030;-93
2024/03/14 07:14:22;;;;;;;11.15;2.97;;;10.10;99.90;;;;;;5011093;28;20040;-92
2024/03/14 07:16:49;;;;;;;11.18;2.30;;;10.10;99.90;;;;;;5013300;28;20093;-92
2024/03/14 07:19:21;;;;;;;6.95;2.05;;;10.10;99.90;;;;;;5013735;28;20041;-92
2024/03/14 07:21:49;;;;;;;5.22;2.33;;;10.10;99.90;;;;;;5011065;28;20069;-91
2024/03/14 07:24:17;;;;;;;10.43;2.10;;;10.10;99.90;;;;;;5033236;28;20040;-94
2024/03/14 07:26:43;;;;;;;14.77;2.47;;;10.20;99.90;;;;;;5019496;28;20080;-95
2024/03/14 07:29:10;;;;;;;10.07;2.53;;;10.10;99.90;;;;;;5014663;28;20099;-91
2024/03/14 07:31:35;;;;;;;9.90;2.40;;;10.20;99.90;;;;;;5014083;28;20029;-95
2024/03/14 07:34:07;;;;;;;8.73;2.30;;;10.20;99.90;;;;;;5009512;28;20390;-94
2024/03/14 07:36:36;;;;;;;8.85;2.72;;;10.20;99.90;;;;;;5029883;28;20021;-94
2024/03/14 07:39:02;;;;;;;10.80;2.63;;;10.20;99.90;;;;;;5011242;28;20386;-94
2024/03/14 07:41:27;;;;;;;5.57;2.03;;;10.20;99.90;;;;;;5005410;28;20087;-90
2024/03/14 07:43:53;;;;;;;10.95;2.22;;;10.20;99.90;;;;;;5027122;28;20040;-94
2024/03/14 07:46:22;;;;;;;10.82;2.80;;;10.20;99.90;;;;;;5024245;28;20050;-94
2024/03/14 07:48:49;;;;;;;4.68;2.13;;;10.30;99.90;;;;;;5008739;28;20455;-95
2024/03/14 07:51:17;;;;;;;8.75;1.85;;;10.30;99.90;;;;;;5009170;28;20030;-95
2024/03/14 07:53:49;;;;;;;4.70;1.48;;;10.30;99.90;;;;;;5027463;28;20025;-95
2024/03/14 07:56:15;;;;;;;6.88;2.00;;;10.30;99.90;;;;;;5031979;28;20494;-95
2024/03/14 07:58:43;;;;;;;14.68;2.63;;;10.40;99.90;;;;;;5009550;28;20034;-94
2024/03/14 08:01:15;;;;;;;7.88;3.00;;;10.40;99.90;;;;;;5028757;28;20029;-95
2024/03/14 08:03:42;;;;;;;9.48;2.67;;;10.40;99.90;;;;;;4999317;28;20037;-95
2024/03/14 08:06:10;;;;;;;13.60;3.50;;;10.40;99.90;;;;;;4999074;28;20027;-94
2024/03/14 08:08:36;;;;;;;8.90;2.72;;;10.40;99.90;;;;;;4999327;28;20033;-94
2024/03/14 08:11:09;;;;;;;13.05;2.70;;;10.40;99.90;;;;;;5001723;28;20049;-95
2024/03/14 08:13:35;;;;;;;8.90;2.22;;;10.40;99.90;;;;;;5009100;28;20018;-96
2024/03/14 08:16:22;;;;;;;6.57;1.85;;;10.40;99.90;;;;;;5008866;28;20052;-93
2024/03/14 08:18:48;;;;;;;8.02;2.10;;;10.40;99.90;;;;;;4990871;28;20484;-96
2024/03/14 08:21:14;;;;;;;8.40;2.00;;;10.40;99.90;;;;;;5016381;28;20022;-93
2024/03/14 08:23:45;;;;;;;13.38;2.15;;;10.40;99.90;;;;;;5020380;28;20489;-95
2024/03/14 08:26:12;;;;;;;10.05;2.22;;;10.40;99.90;;;;;;5025616;28;20029;-93
2024/03/14 08:28:41;;;;;;;10.00;2.33;;;10.40;99.90;;;;;;5026888;28;20029;-93
2024/03/14 08:31:14;;;;;;;8.70;1.92;;;10.40;99.90;;;;;;5026825;28;20075;-94
2024/03/14 08:33:54;;;;;;;5.78;2.10;;;10.50;99.90;;;;;;5026541;28;20030;-95
2024/03/14 08:36:20;;;;;;;12.63;2.58;;;10.50;99.90;;;;;;5009608;28;20100;-95
2024/03/14 08:38:48;;;;;;;11.77;1.92;;;10.60;99.90;;;;;;5026474;28;20026;-95
2024/03/14 08:41:14;;;;;;;5.93;1.95;;;10.60;99.90;;;;;;5028135;28;20029;-94
2024/03/14 08:43:40;;;;;;;8.82;2.08;;;10.80;99.90;;;;;;5028980;28;20032;-93
2024/03/14 08:46:09;;;;;;;9.10;1.85;;;10.80;99.90;;;;;;5008435;28;20076;-94
2024/03/14 08:48:34;;;;;;;6.55;2.30;;;10.90;99.90;;;;;;5020278;28;20061;-95
2024/03/14 08:51:01;;;;;;;8.43;2.75;;;10.90;99.90;;;;;;5028721;28;20077;-94
2024/03/14 08:53:37;;;;;;;8.90;2.60;;;10.90;99.90;;;;;;5029600;28;20063;-93
2024/03/14 08:56:07;;;;;;;9.18;2.40;;;10.90;99.90;;;;;;5009420;28;20439;-94
2024/03/14 08:58:33;;;;;;;9.75;2.50;;;10.90;99.90;;;;;;5027483;28;20022;-93
2024/03/14 09:00:59;;;;;;;9.55;2.10;;;11.00;99.90;;;;;;5026425;28;20029;-94
2024/03/14 09:03:25;;;;;;;8.52;3.03;;;11.00;99.90;;;;;;5009803;28;20028;-94
2024/03/14 09:05:51;;;;;;;10.45;2.10;;;11.10;99.90;;;;;;5028089;28;20050;-94
2024/03/14 09:08:21;;;;;;;11.75;2.20;;;11.10;99.90;;;;;;5011677;28;20384;-95
2024/03/14 09:10:47;;;;;;;11.27;2.58;;;11.10;99.90;;;;;;5018986;28;20026;-95
2024/03/14 09:13:14;;;;;;;6.75;2.40;;;11.10;99.90;;;;;;5009806;28;20032;-94
2024/03/14 09:15:41;;;;;;;10.90;2.85;;;11.10;99.90;;;;;;5024669;28;20150;-95
2024/03/14 09:18:08;;;;;;;12.30;2.58;;;11.10;99.90;;;;;;5033965;28;20007;-95
2024/03/14 09:20:33;;;;;;;8.90;3.47;;;11.10;99.90;;;;;;5022630;28;20100;-94
2024/03/14 09:22:59;;;;;;;11.98;2.60;;;11.20;99.90;;;;;;5019285;28;20034;-95
2024/03/14 09:25:28;;;;;;;7.50;2.65;;;11.20;99.90;;;;;;5018894;28;20030;-94
2024/03/14 09:27:54;;;;;;;6.72;2.80;;;11.20;99.90;;;;;;4999982;28;20018;-94
2024/03/14 09:30:21;;;;;;;8.23;2.78;;;11.30;99.90;;;;;;5018103;28;20104;-95
2024/03/14 09:32:47;;;;;;;13.15;3.10;;;11.30;99.90;;;;;;5019435;28;20021;-94
2024/03/14 09:35:28;;;;;;;5.28;2.40;;;11.30;99.90;;;;;;5005806;28;20022;-94
2024/03/14 09:37:54;;;;;;;10.57;2.55;;;11.30;99.90;;;;;;5008191;28;20018;-94
2024/03/14 09:40:21;;;;;;;11.95;3.13;;;11.30;99.90;;;;;;5009923;28;20032;-94
2024/03/14 09:42:56;;;;;;;7.95;2.90;;;11.30;99.90;;;;;;5005971;28;20037;-94
2024/03/14 09:45:23;;;;;;;13.38;3.33;;;11.40;99.90;;;;;;5001996;28;20064;-94
2024/03/14 09:47:50;;;;;;;10.68;2.40;;;11.40;99.90;;;;;;5013020;28;20014;-92
2024/03/14 09:50:20;;;;;;;9.45;2.40;;;11.40;99.90;;;;;;5024426;28;20044;-95
2024/03/14 09:52:48;;;;;;;11.95;3.33;;;11.60;99.90;;;;;;5004119;28;20014;-95
2024/03/14 09:55:15;;;;;;;10.70;2.35;;;11.60;99.90;;;;;;5003875;28;20022;-95
2024/03/14 09:57:43;;;;;;;15.25;2.83;;;11.80;99.90;;;;;;5022462;28;20097;-93
2024/03/14 10:00:11;;;;;;;12.57;3.00;;;11.80;99.90;;;;;;5022669;28;20032;-96
2024/03/14 10:02:40;;;;;;;6.90;2.20;;;11.80;99.90;;;;;;5008010;28;20076;-95
2024/03/14 10:05:12;;;;;;;11.43;3.40;;;11.90;99.90;;;;;;5022208;28;20471;-95
2024/03/14 10:07:39;;;;;;;11.43;2.65;;;11.90;99.90;;;;;;5027683;28;20033;-93
2024/03/14 10:10:08;;;;;;;9.13;3.10;;;11.90;99.90;;;;;;5036700;28;20033;-93
2024/03/14 10:12:38;;;;;;;7.95;3.15;;;11.90;99.90;;;;;;5034668;28;20113;-94
2024/03/14 10:15:16;;;;;;;11.98;2.78;;;11.90;99.90;;;;;;5024864;28;20022;-95
2024/03/14 10:17:45;;;;;;;6.35;2.65;;;12.00;99.90;;;;;;5003082;28;20059;-95
2024/03/14 10:20:17;;;;;;;8.93;2.15;;;12.00;99.90;;;;;;5021196;28;20026;-94
2024/03/14 10:22:49;;;;;;;7.53;2.50;;;12.10;99.90;;;;;;5003458;28;20388;-95
2024/03/14 10:25:23;;;;;;;11.65;3.20;;;12.20;99.90;;;;;;5019381;28;20084;-95
2024/03/14 10:27:51;;;;;;;8.30;2.67;;;12.30;99.90;;;;;;5022635;28;20014;-95
2024/03/14 10:30:18;;;;;;;10.07;2.80;;;12.40;99.90;;;;;;5021682;28;20030;-95
2024/03/14 10:32:47;;;;;;;5.95;2.60;;;12.40;99.90;;;;;;5007738;28;20045;-95
2024/03/14 10:35:14;;;;;;;12.77;2.65;;;12.50;99.90;;;;;;5011448;28;20052;-94
2024/03/14 10:37:43;;;;;;;8.15;2.53;;;12.50;99.90;;;;;;5019594;28;20102;-89
2024/03/14 10:40:27;;;;;;;14.30;2.88;;;12.60;99.90;;;;;;5035285;28;20013;-94
2024/03/14 10:42:54;;;;;;;8.70;2.20;;;12.50;99.90;;;;;;5027178;28;20037;-96
2024/03/14 10:45:21;;;;;;;13.15;3.00;;;12.50;99.90;;;;;;5021077;28;20494;-95
2024/03/14 10:47:49;;;;;;;16.48;3.17;;;12.40;99.90;;;;;;5001518;28;20570;-94
2024/03/14 10:50:19;;;;;;;12.07;2.70;;;12.30;99.90;;;;;;5019633;28;20017;-94
2024/03/14 10:52:49;;;;;;;10.85;2.50;;;12.30;99.90;;;;;;5014787;28;20014;-95
2024/03/14 10:55:21;;;;;;;10.88;3.00;;;12.30;99.90;;;;;;5016789;28;20480;-94
2024/03/14 10:57:48;;;;;;;11.82;3.22;;;12.40;99.90;;;;;;5003067;28;20022;-94
2024/03/14 11:00:19;;;;;;;9.52;2.60;;;12.50;99.90;;;;;;5018811;28;20029;-95
2024/03/14 11:02:55;;;;;;;7.80;3.40;;;12.50;99.90;;;;;;5020590;28;20098;-95
2024/03/14 11:05:24;;;;;;;10.38;2.90;;;12.60;99.90;;;;;;5021789;28;20039;-96
2024/03/14 11:07:52;;;;;;;13.82;3.47;;;12.70;99.90;;;;;;5021455;28;20056;-96
2024/03/14 11:10:31;;;;;;;9.07;2.95;;;12.80;99.90;;;;;;5028149;28;20055;-90
2024/03/14 11:13:13;;;;;;;14.35;3.25;;;12.80;99.90;;;;;;5033798;28;20013;-94
2024/03/14 11:15:39;;;;;;;14.40;3.30;;;12.80;99.90;;;;;;5031473;28;20018;-95
2024/03/14 11:18:08;;;;;;;14.35;3.28;;;12.80;99.90;;;;;;5017077;28;20048;-93
2024/03/14 11:20:36;;;;;;;10.55;3.08;;;12.80;99.90;;;;;;5028240;28;20021;-96
2024/03/14 11:23:10;;;;;;;10.73;4.15;;;12.70;99.90;;;;;;5009281;28;20029;-96
2024/03/14 11:25:38;;;;;;;11.38;3.13;;;12.70;99.90;;;;;;5021149;28;20022;-96
2024/03/14 11:28:05;;;;;;;8.82;3.72;;;12.80;99.90;;;;;;5003200;28;20052;-95
2024/03/14 11:30:32;;;;;;;10.25;3.50;;;12.80;99.90;;;;;;5005984;28;20046;-96
2024/03/14 11:33:06;;;;;;;7.82;3.00;;;13.00;99.90;;;;;;5001038;28;20029;-95
2024/03/14 11:35:45;;;;;;;10.88;3.65;;;13.10;99.90;;;;;;5017294;28;20052;-95
2024/03/14 11:38:19;;;;;;;20.05;3.65;;;13.20;99.90;;;;;;5020977;28;20726;-93
2024/03/14 11:40:51;;;;;;;13.57;3.58;;;13.30;99.90;;;;;;5022210;28;20037;-96
2024/03/14 11:43:18;;;;;;;12.18;4.45;;;13.20;99.90;;;;;;4997247;28;20022;-96
2024/03/14 11:45:44;;;;;;;6.50;3.40;;;13.10;99.90;;;;;;5014877;28;20098;-95
2024/03/14 11:48:19;;;;;;;15.45;4.25;;;13.10;99.90;;;;;;5014704;28;20041;-95
2024/03/14 11:50:47;;;;;;;8.85;2.80;;;13.00;99.90;;;;;;5022956;28;20033;-96
2024/03/14 11:53:12;;;;;;;13.15;3.17;;;13.00;99.90;;;;;;5023659;28;20021;-95
2024/03/14 11:55:38;;;;;;;8.27;3.13;;;13.00;99.90;;;;;;5023345;28;20128;-96
2024/03/14 11:58:14;;;;;;;12.77;3.83;;;13.10;99.90;;;;;;5022264;28;20077;-96
2024/03/14 12:00:52;;;;;;;10.93;3.88;;;13.10;99.90;;;;;;5023757;28;20503;-95
2024/03/14 12:03:25;;;;;;;10.93;3.30;;;13.10;99.90;;;;;;5023793;28;20044;-96
2024/03/14 12:06:05;;;;;;;11.98;3.20;;;13.10;99.90;;;;;;5024225;28;20030;-92
2024/03/14 12:08:36;;;;;;;9.38;3.65;;;13.10;99.90;;;;;;5024636;28;20106;-96
2024/03/14 12:11:04;;;;;;;10.75;2.83;;;13.10;99.90;;;;;;5007183;28;20034;-96
2024/03/14 12:13:29;;;;;;;7.93;3.50;;;13.00;99.90;;;;;;5001810;28;20021;-95
2024/03/14 12:16:03;;;;;;;10.60;3.08;;;12.90;99.90;;;;;;5003747;28;20060;-95
2024/03/14 12:18:35;;;;;;;13.48;3.80;;;12.90;99.90;;;;;;5021858;28;20029;-96
2024/03/14 12:21:01;;;;;;;14.85;4.05;;;12.80;99.90;;;;;;5022853;28;20022;-96
2024/03/14 12:23:27;;;;;;;8.18;2.85;;;12.90;99.90;;;;;;5006188;28;20033;-96
2024/03/14 12:26:01;;;;;;;8.48;3.25;;;13.00;99.90;;;;;;5021137;28;20060;-95
2024/03/14 12:28:29;;;;;;;8.85;4.00;;;13.00;99.90;;;;;;5026553;28;20041;-96
2024/03/14 12:30:56;;;;;;;7.25;2.60;;;13.00;99.90;;;;;;5021114;28;20030;-95
2024/03/14 12:33:28;;;;;;;10.00;2.75;;;12.90;99.90;;;;;;5018809;28;20022;-95
2024/03/14 12:35:55;;;;;;;11.98;3.45;;;13.00;99.90;;;;;;5002039;28;20093;-94
2024/03/14 12:38:22;;;;;;;13.00;3.50;;;13.00;99.90;;;;;;5020751;28;20014;-96
2024/03/14 12:40:57;;;;;;;11.25;3.05;;;13.00;99.90;;;;;;5006703;28;20101;-94
2024/03/14 12:43:26;;;;;;;8.25;3.22;;;12.90;99.90;;;;;;5005234;28;20018;-92
2024/03/14 12:45:52;;;;;;;8.13;3.13;;;12.90;99.90;;;;;;5002403;28;20100;-96